Time;durP1;ratioP1;P1;durP2;ratioP2;P2;SDS_P1;SDS_P2;PMS_P1;PMS_P2;Temp;Humidity;BMP_temperature;BMP_pressure;BME280_temperature;BME280_humidity;BME280_pressure;Samples;Min_cycle;Max_cycle;Signal;HPM_P1;HPM_P2
2023/10/25 00:03:12;;;;;;;25.30;15.33;;;11.70;99.90;;;;;;6034813;23;20690;-83
2023/10/25 00:06:11;;;;;;;25.70;14.80;;;11.70;99.90;;;;;;6024047;23;20595;-83
2023/10/25 00:09:18;;;;;;;28.00;16.07;;;11.60;99.90;;;;;;6034418;23;20175;-83
2023/10/25 00:12:51;;;;;;;25.13;14.83;;;11.60;99.90;;;;;;5917531;24;20715;-82
2023/10/25 00:15:31;;;;;;;25.00;15.47;;;11.70;99.90;;;;;;5918729;24;20634;-81
2023/10/25 00:18:14;;;;;;;26.13;15.20;;;11.60;99.90;;;;;;5923217;24;20197;-81
2023/10/25 00:21:21;;;;;;;28.70;15.53;;;11.60;99.90;;;;;;5922397;24;20643;-79
2023/10/25 00:24:00;;;;;;;26.20;15.20;;;11.60;99.90;;;;;;5914796;24;20177;-81
2023/10/25 00:26:37;;;;;;;30.17;15.83;;;11.50;99.90;;;;;;5923153;24;20265;-80
2023/10/25 00:29:15;;;;;;;27.13;14.93;;;11.70;99.90;;;;;;5940970;23;20181;-80
2023/10/25 00:31:47;;;;;;;25.87;15.30;;;11.60;99.90;;;;;;6076072;23;20205;-81
2023/10/25 00:34:25;;;;;;;23.77;14.60;;;11.60;99.90;;;;;;6092565;23;20197;-79
2023/10/25 00:37:11;;;;;;;27.03;15.00;;;11.60;99.90;;;;;;6069048;23;20222;-81
2023/10/25 00:40:32;;;;;;;25.73;14.63;;;11.50;99.90;;;;;;6133231;23;20184;-82
2023/10/25 00:44:15;;;;;;;;;;;;;;;;;;;;;
2023/10/25 00:48:23;;;;;;;;;;;;;;;;;;;;;
2023/10/25 00:55:45;;;;;;;27.63;15.20;;;11.50;99.90;;;;;;5713484;25;20214;-79
2023/10/25 01:57:34;;;;;;;27.07;14.67;;;11.40;99.90;;;;;;6048797;23;20292;-81
2023/10/25 02:01:13;;;;;;;23.53;14.03;;;11.30;99.90;;;;;;6048574;23;20225;-82
2023/10/25 02:05:31;;;;;;;;;;;;;;;;;;;;;
2023/10/25 02:09:28;;;;;;;;;;;;;;;;;;;;;
2023/10/25 02:12:51;;;;;;;27.07;15.40;;;11.30;99.90;;;;;;5719671;25;20628;-80
2023/10/25 02:16:23;;;;;;;24.17;14.33;;;11.40;99.90;;;;;;4850982;27;5104001;-79
2023/10/25 02:19:55;;;;;;;;;;;;;;;;;;;;;
2023/10/25 02:23:40;;;;;;;23.97;14.17;;;11.30;99.90;;;;;;4912584;29;20207;-81
2023/10/25 02:26:58;;;;;;;23.07;14.33;;;11.30;99.90;;;;;;4920021;29;20374;-79
2023/10/25 02:29:49;;;;;;;24.77;14.53;;;11.30;99.90;;;;;;4914496;29;20187;-81
2023/10/25 02:33:10;;;;;;;24.17;14.50;;;11.30;99.90;;;;;;4914370;29;20234;-80
2023/10/25 02:36:49;;;;;;;;;;;;;;;;;;;;;
2023/10/25 02:54:28;;;;;;;24.40;15.10;;;11.30;99.90;;;;;;5244792;23;20343;-80
2023/10/25 03:02:24;;;;;;;;;;;;;;;;;;;;;
2023/10/25 03:06:59;;;;;;;;;;;;;;;;;;;;;
2023/10/25 03:11:16;;;;;;;;;;;;;;;;;;;;;
2023/10/25 04:00:08;;;;;;;;;;;;;;;;;;;;;
2023/10/25 05:05:34;;;;;;;;;;;;;;;;;;;;;
2023/10/25 05:56:05;;;;;;;;;;;;;;;;;;;;;
2023/10/25 06:54:09;;;;;;;17.03;11.63;;;11.70;99.90;;;;;;6049894;23;20604;-82
2023/10/25 06:57:42;;;;;;;15.00;11.10;;;11.60;99.90;;;;;;6025599;23;20788;-81
2023/10/25 07:01:56;;;;;;;16.80;11.80;;;11.60;99.90;;;;;;5903459;24;20247;-80
2023/10/25 07:04:34;;;;;;;15.17;11.13;;;11.60;99.90;;;;;;5827223;24;20286;-78
2023/10/25 07:07:09;;;;;;;15.43;10.80;;;11.60;99.90;;;;;;5841156;24;20235;-75
2023/10/25 07:09:36;;;;;;;14.97;10.60;;;11.60;99.90;;;;;;5865282;24;20191;-76
2023/10/25 07:12:21;;;;;;;20.47;11.00;;;11.70;99.90;;;;;;5867688;24;20179;-75
2023/10/25 07:15:11;;;;;;;15.43;10.73;;;11.70;99.90;;;;;;5895748;24;20632;-75
2023/10/25 07:17:41;;;;;;;13.97;10.33;;;11.70;99.90;;;;;;5873226;24;20498;-80
2023/10/25 07:20:26;;;;;;;14.13;10.20;;;11.70;99.90;;;;;;5875869;24;20201;-75
2023/10/25 07:23:04;;;;;;;14.27;10.00;;;11.60;99.90;;;;;;5894996;24;20548;-76
2023/10/25 07:30:06;;;;;;;;;;;;;;;;;;;;;
2023/10/25 09:47:02;;;;;;;9.83;7.17;;;12.40;99.90;;;;;;6235265;22;20282;-77
2023/10/25 09:51:00;;;;;;;10.87;7.30;;;12.30;99.90;;;;;;6097338;23;20648;-80
2023/10/25 09:54:12;;;;;;;10.43;7.40;;;12.40;99.90;;;;;;6114386;23;20161;-77
2023/10/25 10:03:37;;;;;;;9.03;7.10;;;12.40;99.90;;;;;;6126374;23;20204;-77
2023/10/25 10:06:23;;;;;;;8.23;6.43;;;12.30;99.90;;;;;;6153248;23;20240;-81
2023/10/25 10:18:31;;;;;;;10.27;7.40;;;12.40;99.90;;;;;;5909651;24;20528;-83
2023/10/25 10:22:21;;;;;;;11.77;7.57;;;12.50;99.90;;;;;;5930940;24;20181;-84
2023/10/25 10:41:48;;;;;;;10.47;7.77;;;12.40;99.90;;;;;;6171352;23;21443;31
2023/10/25 10:48:12;;;;;;;10.90;7.63;;;12.40;99.90;;;;;;6206329;22;20649;-83
2023/10/25 10:51:56;;;;;;;12.37;8.80;;;12.40;99.90;;;;;;6210591;22;20656;-83
2023/10/25 10:54:56;;;;;;;10.27;7.60;;;12.50;99.90;;;;;;6202514;23;20578;-83
2023/10/25 10:58:21;;;;;;;10.60;7.90;;;12.40;99.90;;;;;;6180018;23;20178;-80
2023/10/25 11:01:13;;;;;;;24.90;7.83;;;12.40;99.90;;;;;;6186130;23;20216;-83
2023/10/25 11:04:43;;;;;;;16.20;7.90;;;12.30;99.90;;;;;;6171178;23;20207;-81
2023/10/25 11:12:14;;;;;;;11.73;8.00;;;12.20;99.90;;;;;;6024990;23;20166;-78
2023/10/25 11:20:05;;;;;;;11.77;8.50;;;12.30;99.90;;;;;;6238197;22;20193;-83
2023/10/25 11:23:02;;;;;;;14.47;9.10;;;12.30;99.90;;;;;;6124094;23;20187;-81
2023/10/25 11:25:37;;;;;;;11.83;9.40;;;12.30;99.90;;;;;;6125557;23;20270;-83
2023/10/25 11:28:08;;;;;;;13.67;9.67;;;12.20;99.90;;;;;;6126684;23;20247;-82
2023/10/25 11:30:40;;;;;;;16.40;9.37;;;12.00;99.90;;;;;;6127122;23;20297;-82
2023/10/25 11:33:17;;;;;;;13.07;9.60;;;12.20;99.90;;;;;;6128252;23;20513;-79
2023/10/25 11:36:05;;;;;;;13.30;10.33;;;12.20;99.90;;;;;;6130809;23;20173;-78
2023/10/25 11:39:24;;;;;;;11.00;8.30;;;12.10;99.90;;;;;;6102041;23;20219;-79
2023/10/25 11:42:48;;;;;;;11.70;7.77;;;12.00;99.90;;;;;;6004283;23;20263;-82
2023/10/25 11:45:37;;;;;;;10.73;8.03;;;12.10;99.90;;;;;;6012222;23;20286;-82
2023/10/25 16:46:58;;;;;;;16.60;10.63;;;10.20;99.90;;;;;;6213311;22;20413;-79
2023/10/25 16:49:49;;;;;;;17.97;10.27;;;10.20;99.90;;;;;;6152830;23;20156;-80
2023/10/25 16:52:28;;;;;;;16.07;10.43;;;10.30;99.90;;;;;;6131695;23;20181;-83
2023/10/25 16:54:59;;;;;;;17.80;10.90;;;10.40;99.90;;;;;;6133622;23;20171;-82
2023/10/25 16:57:35;;;;;;;18.37;11.03;;;10.30;99.90;;;;;;6137882;23;20263;-82
2023/10/25 17:00:08;;;;;;;15.83;11.00;;;10.30;99.90;;;;;;6182479;23;20175;-82
2023/10/25 17:02:49;;;;;;;20.50;11.20;;;10.30;99.90;;;;;;6158046;23;20625;-84
2023/10/25 17:05:33;;;;;;;18.10;10.73;;;10.30;99.90;;;;;;6182149;23;20241;-80
2023/10/25 17:08:11;;;;;;;19.20;11.30;;;10.20;99.90;;;;;;6158493;23;20199;-82
2023/10/25 17:10:52;;;;;;;18.27;11.37;;;10.20;99.90;;;;;;6180122;23;20174;-81
2023/10/25 17:13:31;;;;;;;19.07;11.10;;;10.20;99.90;;;;;;6181375;23;20193;-80
2023/10/25 17:16:02;;;;;;;16.07;10.07;;;10.20;99.90;;;;;;6157584;23;20476;-81
2023/10/25 17:18:53;;;;;;;15.77;9.60;;;10.10;99.90;;;;;;6207558;23;20522;-82
2023/10/25 17:21:23;;;;;;;14.37;9.50;;;10.10;99.90;;;;;;6247020;22;20174;-82
2023/10/25 17:23:57;;;;;;;15.03;9.20;;;10.10;99.90;;;;;;6244621;23;20272;-81
2023/10/25 17:26:32;;;;;;;15.40;9.47;;;10.00;99.90;;;;;;6239769;23;20240;-80
2023/10/25 17:29:05;;;;;;;14.43;9.30;;;10.20;99.90;;;;;;6241950;23;20197;-79
2023/10/25 17:31:44;;;;;;;16.63;10.30;;;10.10;99.90;;;;;;6221290;23;20220;-82
2023/10/25 17:34:16;;;;;;;21.10;9.53;;;10.20;99.90;;;;;;6242359;23;20240;-83
2023/10/25 17:36:50;;;;;;;17.17;8.87;;;10.10;99.90;;;;;;6219782;23;20180;-83
2023/10/25 17:39:21;;;;;;;15.17;8.73;;;10.20;99.90;;;;;;6243350;23;20162;-83
2023/10/25 17:41:54;;;;;;;18.47;8.93;;;10.00;99.90;;;;;;6243989;23;20604;-81
2023/10/25 17:44:27;;;;;;;16.63;9.20;;;10.00;99.90;;;;;;6242491;23;20626;-82
2023/10/25 17:46:57;;;;;;;13.20;8.43;;;10.00;99.90;;;;;;6243311;22;20202;-78
2023/10/25 17:49:33;;;;;;;13.57;8.57;;;10.10;99.90;;;;;;6242006;23;20194;-79
2023/10/25 17:52:04;;;;;;;12.43;8.10;;;10.10;99.90;;;;;;6268931;22;20169;-78
2023/10/25 17:54:33;;;;;;;16.17;8.90;;;10.00;99.90;;;;;;6244233;23;20173;-80
2023/10/25 17:57:02;;;;;;;15.93;9.10;;;10.10;99.90;;;;;;6243613;22;20166;-79
2023/10/25 18:00:18;;;;;;;12.90;8.83;;;10.10;99.90;;;;;;6240563;23;20196;-79
2023/10/25 18:03:47;;;;;;;13.97;8.77;;;10.10;99.90;;;;;;6223283;23;20186;-79
2023/10/25 18:06:46;;;;;;;14.70;9.20;;;10.10;99.90;;;;;;6061375;23;20275;-79
2023/10/25 18:09:57;;;;;;;15.60;9.37;;;10.00;99.90;;;;;;6057112;23;20190;-81
2023/10/25 18:16:47;;;;;;;15.40;9.60;;;10.20;99.90;;;;;;5973270;24;20210;-83
2023/10/25 18:19:27;;;;;;;17.83;10.57;;;10.10;99.90;;;;;;5975458;24;20228;-82
2023/10/25 18:22:01;;;;;;;16.80;10.50;;;10.10;99.90;;;;;;5974381;24;20188;-76
2023/10/25 18:24:43;;;;;;;17.27;10.90;;;10.10;99.90;;;;;;5998193;23;20243;-79
2023/10/25 18:28:14;;;;;;;18.30;11.87;;;10.10;99.90;;;;;;5975106;24;20179;-80
2023/10/25 18:41:08;;;;;;;22.87;15.17;;;10.30;99.90;;;;;;6121401;23;20658;-85
2023/10/25 18:45:26;;;;;;;26.63;16.37;;;10.20;99.90;;;;;;6054732;23;20225;-80
2023/10/25 19:09:36;;;;;;;25.43;14.57;;;10.20;99.90;;;;;;5918622;24;20411;-80
2023/10/25 19:13:06;;;;;;;24.17;13.70;;;10.30;99.90;;;;;;5922157;24;20177;-80
2023/10/25 19:26:59;;;;;;;26.63;15.30;;;10.20;99.90;;;;;;4480306;27;18875508;-83
2023/10/25 19:37:56;;;;;;;26.67;14.57;;;10.40;99.90;;;;;;4994840;28;20184;-82
2023/10/25 19:41:18;;;;;;;31.20;14.77;;;10.20;99.90;;;;;;5003891;28;20654;-84
2023/10/25 19:45:43;;;;;;;29.87;15.23;;;10.20;99.90;;;;;;4935427;29;20226;-83
2023/10/25 19:53:06;;;;;;;33.37;16.00;;;10.10;99.90;;;;;;4901697;29;20210;-83
2023/10/25 19:56:21;;;;;;;32.80;16.80;;;10.20;99.90;;;;;;4869980;29;20906;-84
2023/10/25 20:00:00;;;;;;;;;;;;;;;;;;;;;
2023/10/25 20:03:43;;;;;;;35.57;18.17;;;10.10;99.90;;;;;;4897672;29;20215;-80
2023/10/25 20:06:34;;;;;;;36.87;17.93;;;10.20;99.90;;;;;;4909036;28;20213;-80
2023/10/25 20:09:04;;;;;;;38.33;18.73;;;10.20;99.90;;;;;;4964269;28;20216;-79
2023/10/25 20:11:34;;;;;;;36.00;18.60;;;10.20;99.90;;;;;;4965250;28;20217;-80
2023/10/25 20:14:29;;;;;;;34.83;17.53;;;10.20;99.90;;;;;;4949712;28;20201;-82
2023/10/25 20:17:08;;;;;;;33.93;18.03;;;10.20;99.90;;;;;;4964013;28;20219;-82
2023/10/25 20:19:54;;;;;;;36.37;18.23;;;10.20;99.90;;;;;;4966307;28;20385;-83
2023/10/25 20:22:28;;;;;;;31.37;17.43;;;10.20;99.90;;;;;;4950906;28;20206;-82
2023/10/25 20:25:04;;;;;;;37.33;18.20;;;10.20;99.90;;;;;;4966303;28;20230;-85
2023/10/25 20:27:38;;;;;;;33.20;17.93;;;10.30;99.90;;;;;;4950634;28;20198;-80
2023/10/25 20:30:10;;;;;;;36.43;18.10;;;10.30;99.90;;;;;;5018893;28;20204;-80
2023/10/25 20:33:10;;;;;;;34.60;18.00;;;10.20;99.90;;;;;;5023472;28;20261;-78
2023/10/25 20:35:39;;;;;;;35.53;16.57;;;10.30;99.90;;;;;;5045058;28;20187;-82
2023/10/25 20:38:15;;;;;;;35.17;18.27;;;10.20;99.90;;;;;;5073186;28;20252;-81
2023/10/25 20:40:47;;;;;;;35.00;17.97;;;10.10;99.90;;;;;;5074609;28;20203;-80
2023/10/25 20:43:48;;;;;;;36.13;18.90;;;10.10;99.90;;;;;;5055394;28;20198;-82
2023/10/25 20:46:18;;;;;;;34.17;17.77;;;10.20;99.90;;;;;;5074494;28;20621;-81
2023/10/25 20:48:47;;;;;;;36.00;17.90;;;10.20;99.90;;;;;;5072191;28;20276;-82
2023/10/25 20:51:18;;;;;;;35.83;17.30;;;10.20;99.90;;;;;;5074310;28;20683;-76
2023/10/25 20:53:46;;;;;;;39.60;18.70;;;10.20;99.90;;;;;;5074625;28;20284;-76
2023/10/25 20:56:14;;;;;;;37.53;18.97;;;10.10;99.90;;;;;;5041022;28;20194;-77
2023/10/25 20:59:02;;;;;;;37.50;19.07;;;10.20;99.90;;;;;;5076089;28;20191;-76
2023/10/25 21:01:34;;;;;;;38.97;18.27;;;10.20;99.90;;;;;;5070494;28;20194;-77
2023/10/25 21:04:22;;;;;;;39.37;19.30;;;10.20;99.90;;;;;;5058014;28;20226;-77
2023/10/25 21:07:12;;;;;;;40.30;18.07;;;10.20;99.90;;;;;;5055726;28;20362;-76
2023/10/25 21:09:48;;;;;;;35.40;17.87;;;10.20;99.90;;;;;;5075037;28;20240;-77
2023/10/25 21:13:01;;;;;;;42.33;18.73;;;10.20;99.90;;;;;;5049246;28;20205;-76
2023/10/25 21:16:23;;;;;;;39.90;18.07;;;10.20;99.90;;;;;;5065209;28;20617;-79
2023/10/25 21:18:57;;;;;;;35.00;17.83;;;10.20;99.90;;;;;;5069593;28;20624;-77
2023/10/25 21:21:27;;;;;;;35.73;17.90;;;10.30;99.90;;;;;;5063332;28;20213;-81
2023/10/25 21:24:14;;;;;;;39.57;19.23;;;10.40;99.90;;;;;;5064045;28;20298;-82
2023/10/25 21:26:53;;;;;;;38.40;19.43;;;10.40;99.90;;;;;;5032142;28;20205;-81
2023/10/25 21:29:27;;;;;;;39.73;19.67;;;10.40;99.90;;;;;;5051459;28;20247;-80
2023/10/25 21:32:01;;;;;;;41.37;20.20;;;10.20;99.90;;;;;;5048672;28;20661;-83
2023/10/25 21:34:59;;;;;;;40.50;19.60;;;10.40;99.90;;;;;;5047575;28;20186;-81
2023/10/25 21:37:37;;;;;;;37.97;18.07;;;10.40;99.90;;;;;;4951681;29;20314;-81
2023/10/25 21:40:08;;;;;;;35.63;18.03;;;10.20;99.90;;;;;;4935404;29;20304;-82
2023/10/25 21:42:36;;;;;;;36.03;17.00;;;10.10;99.90;;;;;;4952169;29;20296;-83
2023/10/25 21:45:04;;;;;;;37.07;17.70;;;10.20;99.90;;;;;;4951434;29;20425;-76
2023/10/25 21:48:30;;;;;;;37.33;17.60;;;10.10;99.90;;;;;;4925195;29;20214;-80
2023/10/25 21:51:04;;;;;;;34.47;16.10;;;10.00;99.90;;;;;;4952630;29;20238;-85
2023/10/25 21:53:34;;;;;;;31.40;15.57;;;10.00;99.90;;;;;;4951837;29;20198;-85
2023/10/25 21:56:08;;;;;;;32.87;16.00;;;10.10;99.90;;;;;;4951630;29;20210;-76
2023/10/25 21:58:55;;;;;;;33.30;15.93;;;10.00;99.90;;;;;;4950917;29;20339;-81
2023/10/25 22:01:45;;;;;;;33.67;15.97;;;10.00;99.90;;;;;;4951221;29;20697;-82
2023/10/25 22:04:26;;;;;;;37.53;16.90;;;10.00;99.90;;;;;;4951452;29;20221;-82
2023/10/25 22:06:58;;;;;;;33.30;16.20;;;10.10;99.90;;;;;;4952640;29;20227;-77
2023/10/25 22:09:38;;;;;;;36.10;17.03;;;10.10;99.90;;;;;;4952738;29;20250;-81
2023/10/25 22:12:10;;;;;;;36.37;17.10;;;10.20;99.90;;;;;;4950878;29;20202;-82
2023/10/25 22:14:41;;;;;;;36.10;16.77;;;10.20;99.90;;;;;;5002394;28;20190;-76
2023/10/25 22:17:21;;;;;;;35.73;16.57;;;10.10;99.90;;;;;;5051182;28;20211;-76
2023/10/25 22:19:55;;;;;;;37.77;17.07;;;10.10;99.90;;;;;;5050936;28;20366;-82
2023/10/25 22:22:28;;;;;;;37.27;17.57;;;10.20;99.90;;;;;;5033349;28;20244;-81
2023/10/25 22:24:56;;;;;;;38.97;17.70;;;10.30;99.90;;;;;;5052101;28;20696;-76
2023/10/25 22:27:30;;;;;;;42.43;18.17;;;10.20;99.90;;;;;;5071411;28;20190;-81
2023/10/25 22:30:01;;;;;;;43.07;18.67;;;10.20;99.90;;;;;;5071151;28;20223;-74
2023/10/25 22:32:49;;;;;;;39.90;17.77;;;10.10;99.90;;;;;;5070275;28;20586;-76
2023/10/25 22:35:18;;;;;;;42.60;17.57;;;10.20;99.90;;;;;;5070760;28;20186;-82
2023/10/25 22:37:51;;;;;;;43.20;17.73;;;10.10;99.90;;;;;;5055231;28;20194;-77
2023/10/25 22:40:19;;;;;;;41.67;17.83;;;9.90;99.90;;;;;;5054024;28;20292;-75
2023/10/25 22:42:47;;;;;;;44.97;17.97;;;10.00;99.90;;;;;;5036049;28;20205;-77
2023/10/25 22:45:24;;;;;;;38.63;17.50;;;10.00;99.90;;;;;;5071166;28;20269;-75
2023/10/25 22:47:59;;;;;;;42.33;17.80;;;10.10;99.90;;;;;;5071388;28;20562;-81
2023/10/25 22:50:58;;;;;;;41.60;17.90;;;10.20;99.90;;;;;;5071955;28;20189;-81
2023/10/25 22:53:33;;;;;;;40.17;18.33;;;10.30;99.90;;;;;;5068522;28;20234;-76
2023/10/25 22:56:11;;;;;;;46.93;19.27;;;10.10;99.90;;;;;;5070617;28;20615;-75
2023/10/25 22:58:42;;;;;;;42.93;18.00;;;10.10;99.90;;;;;;5070256;28;20540;-77
2023/10/25 23:01:10;;;;;;;39.73;17.13;;;10.10;99.90;;;;;;5070575;28;20186;-76
2023/10/25 23:03:38;;;;;;;44.67;18.57;;;10.10;99.90;;;;;;5072052;28;20292;-76
2023/10/25 23:06:06;;;;;;;40.57;17.40;;;10.20;99.90;;;;;;5070274;28;20220;-76
2023/10/25 23:08:34;;;;;;;38.50;18.07;;;10.30;99.90;;;;;;5071405;28;20606;-75
2023/10/25 23:11:04;;;;;;;41.53;17.97;;;10.30;99.90;;;;;;5070188;28;20194;-75
2023/10/25 23:13:43;;;;;;;37.90;17.53;;;10.20;99.90;;;;;;5051788;28;20249;-76
2023/10/25 23:16:12;;;;;;;47.67;18.30;;;10.30;99.90;;;;;;5071072;28;20287;-76
2023/10/25 23:18:56;;;;;;;43.77;18.70;;;10.30;99.90;;;;;;5052291;28;20291;-79
2023/10/25 23:21:30;;;;;;;39.40;18.47;;;10.20;99.90;;;;;;5070522;28;20275;-82
2023/10/25 23:24:00;;;;;;;41.70;19.23;;;10.20;99.90;;;;;;5071481;28;20610;-75
2023/10/25 23:26:39;;;;;;;44.30;18.90;;;10.20;99.90;;;;;;5069721;28;20600;-75
2023/10/25 23:29:14;;;;;;;46.70;20.43;;;10.20;99.90;;;;;;5069784;28;20193;-82
2023/10/25 23:31:42;;;;;;;48.30;20.47;;;10.20;99.90;;;;;;5070533;28;20542;-82
2023/10/25 23:34:24;;;;;;;45.23;19.53;;;10.30;99.90;;;;;;5069948;28;20308;-82
2023/10/25 23:36:52;;;;;;;45.80;20.53;;;10.20;99.90;;;;;;5052205;28;20208;-77
2023/10/25 23:39:28;;;;;;;50.80;21.10;;;10.20;99.90;;;;;;5071163;28;20178;-75
2023/10/25 23:42:08;;;;;;;47.13;20.03;;;10.30;99.90;;;;;;5070145;28;20267;-76
2023/10/25 23:44:36;;;;;;;60.70;22.47;;;10.30;99.90;;;;;;5070430;28;20193;-76
2023/10/25 23:47:09;;;;;;;59.53;23.47;;;10.40;99.90;;;;;;5069427;28;20209;-76
2023/10/25 23:49:57;;;;;;;59.73;23.07;;;10.40;99.90;;;;;;5050868;28;20652;-76
2023/10/25 23:52:31;;;;;;;59.77;22.07;;;10.30;99.90;;;;;;5069858;28;20189;-77
2023/10/25 23:55:13;;;;;;;63.30;22.53;;;10.40;99.90;;;;;;5070981;28;20205;-76
2023/10/25 23:57:43;;;;;;;71.23;25.23;;;10.30;99.90;;;;;;5070498;28;20232;-76
